Aeroporto :
LOGIN :

Iscrizione | Disclaimer

   EN    FR    IT 

 










Sommario :    VFR   VFR Marginale   IFR   IFR Intensivo   IFR Molto Intensivo
Visibilità : 
Base nubi : 
>= 8 km
>= 3000ft
5 / 8 km
1000 / 3000 ft
1500m / 5 km
500 / 1000 ft
800 / 1500m
200 / 500 ft
< 800m
< 200 ft
Simboli :   Temporali  Nebbia  Neve Forte  Precipitazioni Forti  Vento > 20 kt
SIGMETs :   Varie  Temporali  Ghiacco  Turbolenza  Onda orograficha  Ceneri Vulcaniche






- Altitudine del aeroporto : 28 ft
- Codice IATA : OLA


ENOL - Ørland

ULTIMO METAR :
  • 242150Z 20003KT 9999 FEW040 BKN075 10/08 Q1019

METARs OBSOLETI :
  • 242050Z VRB02KT 9999 FEW040 BKN080 10/08 Q1018 NOSIG
  • 242020Z 31004KT 9999 FEW040 BKN080 10/08 Q1017 NOSIG
  • 241950Z 33004KT 9999 FEW045 BKN075 10/08 Q1016 NOSIG

TAF TAF ENOL
Valido dal 24 a 18 ore il 25 a 18 ore UTC


2418/2518 32008KT 9999 FEW045 BKN070
BECMG 2422/2424 24012KT SCT010 BKN014
TEMPO 2503/2508 4000 DZRA OVC006
BECMG 2508/2510 30008KT FEW010 SCT025



MetMap, La meteo Aeronautica in un colpo d'occhio ! - Copyright ORBIFLY Dicembre 2007 - Disclaimer

ORBIFLY MET'MAP TEAM :

Programmazione e sviluppo : Alexandra Zaïnal
Concezione : Baudouin d'Aumeries
Aiuto per la programmazione : Marc-Olivier Méhu
Supporto tecnico e logistico : Manuel Goepfert
Aiuto per la traduzione : Arnaldo La Scala

Contatto : metmap@orbifly.com




FONTI E CREDITI :

   NOAA